Relevés horaires Matro (Suisse)


Relevés horaires à Matro - Lundi 29 Déc. 2014
Heure UTC1 Température [°C] Vent [km/h] Hum. [%] Pres.4 [hPa] Visi. [Km] Nébu. [octa] Préc.5 [mm] Cond.
2m. Res. Ros. Dir.2 Vit. Moy. Raf.3
23:00 -12.5 -26.8 -19.4 NNO 68.5 68.5 92.6 56 850(-0.4/3h) -- -- -- --
22:00 -12.7 -26.9 -19.3 NNO 66.7 66.7 90.7 58 850(0.3/3h) -- -- -- --
21:00 -12.6 -26.3 -18.0 NNO 61.1 61.1 87.0 64 850(1.1/3h) -- -- -- --
20:00 -12.7 -25.8 -16.9 NNO 53.7 53.7 74.1 71 850(1.8/3h) -- -- -- --
19:00 -12.3 -24.5 -17.4 NNO 46.3 48.2 70.4 66 850(0.9/3h) -- -- -- --
18:00 -12.0 -23.5 -15.7 NNO 40.7 44.4 70.4 74 850(0.6/3h) -- -- -- --
17:00 -12.1 -24.1 -17.3 NNO 44.4 44.4 63.0 65 850(0.0/3h) -- -- -- --
16:00 -12.3 -23.5 -15.7 NNO 37.0 40.7 68.5 76 850(0.1/3h) -- -- -- --
15:00 -12.0 -23.1 -14.5 NNO 37.0 42.6 70.4 82 850(-0.4/3h) -- -- -- --
14:00 -11.8 -22.3 -14.3 NO 33.3 38.9 59.3 82 850(-1.2/3h) -- -- -- --
13:00 -11.7 -22.5 -16.2 NO 35.2 42.6 70.4 69 850(-1.1/3h) -- -- -- --
12:00 -11.2 -24.2 -18.0 NO 59.3 59.3 83.3 57 850(-0.8/3h) -- -- -- --
11:00 -11.3 -22.6 -22.9 NNO 40.7 44.4 72.2 37 850(0.5/3h) -- -- -- --
10:00 -11.2 -22.8 -23.5 NNO 44.4 44.4 75.9 35 850(1.2/3h) -- -- -- --
09:00 -11.4 -21.6 -25.3 NNO 31.5 59.3 83.3 30 850(1.5/3h) -- -- -- --
08:00 -11.8 -23.5 -25.8 NNO 42.6 55.6 83.3 30 850(1.2/3h) -- -- -- --
07:00 -11.7 -24.6 -25.5 NNO 55.6 59.3 83.3 31 850(0.8/3h) -- -- -- --
06:00 -11.8 -25.1 -27.8 NNO 59.3 72.2 100.0 25 850(0.5/3h) -- -- -- --
05:00 -11.8 -24.4 -26.6 NNO 51.9 57.4 88.9 28 850(1.1/3h) -- -- -- --
04:00 -11.4 -22.9 -27.2 NNO 42.6 51.9 70.4 26 850(1.8/3h) -- -- -- --
03:00 -11.2 -22.8 -26.0 NNO 44.4 61.1 87.0 28 850(2.5/3h) -- -- -- --
02:00 -11.2 -22.8 -25.7 NNO 44.4 55.6 77.8 29 850(2.3/3h) -- -- -- --
01:00 -11.3 -24.1 -25.8 NNO 55.6 61.1 87.0 29 850(2.2/3h) -- -- -- --
00:00 -11.2 -23.7 -27.0 NNO 53.7 61.1 96.3 26 850(2.3/3h) -- -- -- --

1 Coordinated Universal Time. Actuellement il est 00:00 locale et 22:00 UTC.

2 Le vent souffle depuis la direction indiquée vers la direction oposée.

3 Les rafales max. sont disponible 40 min après l'heure du relevé.

4 Pour les stations d'altitude (plus de 600m) le géopotentiel du niveau le plus proche de la pression obligatoire est indiqué.

5 Les stations disposant d'un diffuseur peuvent indiquer "trace". Cela signifie que des précipitations ont touchés le sol mais que la quantité est inférieure à 0.1 mm.

Copyright

Les données affichées sur cette page sont la propriété exclusive de Météo Suisse.

Récapitulatif de la journée
Température [°C] Vent [km/h] Ensoleillement4 [h] Precipitations totale5 [mm] Pression [Hpa]
Min1 Max.2 Moy.3 Max. Min Max.
-12.2 -11.1 53.9 100.0 4 h 36 min 0 850.0 850.0

1 Température minimale relevée entre 18:00 UTC la veille et 18:00 UTC le jour donné.

2 Température maximale relevée entre 06:00 UTC le jour donné et 06:00 UTC le lendemain.

3 Vent moyen de la journée basé sur les relevés horaires.

4 Ensoleillement en heures relevé entre 06:00 UTC la veille et 06:00 UTC le jour donné.

5 Précipitations totales tombées entre 06:00 UTC la jour donné et 06:00 UTC le lendemain.

Graphiques horaires